Time;durP1;ratioP1;P1;durP2;ratioP2;P2;SDS_P1;SDS_P2;PMS_P1;PMS_P2;Temp;Humidity;BMP_temperature;BMP_pressure;BME280_temperature;BME280_humidity;BME280_pressure;Samples;Min_cycle;Max_cycle;Signal;HPM_P1;HPM_P2
2022/03/22 00:02:16;;;;;;;;;4.00;3.00;;;;;-146.25;100.00;57879.81;5058723;28;45514;-73
2022/03/22 00:04:42;;;;;;;;;3.00;3.00;;;;;-146.25;100.00;57879.81;5059008;28;45411;-73
2022/03/22 00:07:08;;;;;;;;;2.00;2.00;;;;;-146.25;100.00;57879.81;5059211;28;45464;-72
2022/03/22 00:09:34;;;;;;;;;3.00;3.00;;;;;-146.25;100.00;57879.81;5057437;28;46342;-73
2022/03/22 00:12:00;;;;;;;;;4.00;3.00;;;;;-146.25;100.00;57879.81;5057188;28;45498;-73
2022/03/22 00:14:26;;;;;;;;;2.00;2.00;;;;;-146.25;100.00;57879.81;5058711;28;45580;-73
2022/03/22 00:16:53;;;;;;;;;2.00;2.00;;;;;-146.25;100.00;57879.81;5058814;28;45442;-73
2022/03/22 00:19:20;;;;;;;;;3.33;3.00;;;;;-146.25;100.00;57879.81;5058424;28;46479;-73
2022/03/22 00:21:46;;;;;;;;;4.00;3.00;;;;;-146.25;100.00;57879.81;5058515;28;45599;-73
2022/03/22 00:24:12;;;;;;;;;3.00;3.00;;;;;-146.25;100.00;57879.81;5058405;28;45408;-73
2022/03/22 00:26:38;;;;;;;;;2.67;2.00;;;;;-146.25;100.00;57879.81;5058509;28;45465;-73
2022/03/22 00:29:03;;;;;;;;;4.00;3.00;;;;;-146.25;100.00;57879.81;5058377;28;45398;-73
2022/03/22 00:31:32;;;;;;;;;2.00;2.00;;;;;-146.25;100.00;57879.81;5065100;28;45595;-73
2022/03/22 00:33:58;;;;;;;;;2.00;2.00;;;;;-146.25;100.00;57879.81;5057767;28;45477;-73
2022/03/22 00:36:24;;;;;;;;;2.00;2.00;;;;;-146.25;100.00;57879.81;5058383;28;45568;-73
2022/03/22 00:38:50;;;;;;;;;3.00;3.00;;;;;-146.25;100.00;57879.81;5057968;28;46174;-73
2022/03/22 00:41:16;;;;;;;;;1.00;1.00;;;;;-146.25;100.00;57879.81;5058188;28;45469;-73
2022/03/22 00:43:46;;;;;;;;;2.00;2.00;;;;;-146.25;100.00;57879.81;5074351;28;45393;-73
2022/03/22 00:46:12;;;;;;;;;3.00;3.00;;;;;-146.25;100.00;57879.81;5058332;28;45444;-74
2022/03/22 00:48:38;;;;;;;;;2.00;2.00;;;;;-146.25;100.00;57879.81;5057805;28;45397;-73
2022/03/22 00:51:04;;;;;;;;;2.00;2.00;;;;;-146.25;100.00;57879.81;5058766;28;45423;-73
2022/03/22 00:53:30;;;;;;;;;4.00;3.67;;;;;-146.25;100.00;57879.81;5057715;28;45580;-73
2022/03/22 00:55:56;;;;;;;;;3.00;3.00;;;;;-146.25;100.00;57879.81;5058229;28;45421;-73
2022/03/22 00:58:21;;;;;;;;;3.25;3.00;;;;;-146.25;100.00;57879.81;5057697;28;46506;-74
2022/03/22 01:00:48;;;;;;;;;3.33;2.00;;;;;-146.25;100.00;57879.81;5057163;28;45785;-73
2022/03/22 01:03:14;;;;;;;;;3.50;3.00;;;;;-146.25;100.00;57879.81;5057908;28;45944;-73
2022/03/22 01:05:40;;;;;;;;;3.00;3.00;;;;;-146.25;100.00;57879.81;5058515;28;45424;-72
2022/03/22 01:08:10;;;;;;;;;3.33;3.00;;;;;-146.25;100.00;57879.81;5057848;28;46500;-73
2022/03/22 01:10:39;;;;;;;;;4.00;3.33;;;;;-146.25;100.00;57879.81;5057910;28;45515;-73
2022/03/22 01:13:06;;;;;;;;;2.67;2.00;;;;;-146.25;100.00;57879.81;5063593;28;45516;-73
2022/03/22 01:15:33;;;;;;;;;3.25;2.50;;;;;-146.25;100.00;57879.81;5058161;28;45639;-73
2022/03/22 01:18:05;;;;;;;;;3.50;3.25;;;;;-146.25;100.00;57879.81;5057360;28;45370;-73
2022/03/22 01:20:34;;;;;;;;;3.00;3.00;;;;;-146.25;100.00;57879.81;5057527;28;45419;-73
2022/03/22 01:23:02;;;;;;;;;3.00;3.00;;;;;-146.25;100.00;57879.81;5060778;28;45507;-72
2022/03/22 01:25:30;;;;;;;;;3.00;2.00;;;;;-146.25;100.00;57879.81;5052067;28;45482;-73
2022/03/22 01:27:55;;;;;;;;;2.00;2.00;;;;;-146.25;100.00;57879.81;5056830;28;45809;-73
2022/03/22 01:30:22;;;;;;;;;2.00;2.00;;;;;-146.25;100.00;57879.81;5057451;28;45424;-73
2022/03/22 01:32:52;;;;;;;;;4.00;4.00;;;;;-146.25;100.00;57879.81;5072136;28;45499;-73
2022/03/22 01:35:19;;;;;;;;;4.00;4.00;;;;;-146.25;100.00;57879.81;5057343;28;45669;-73
2022/03/22 01:37:49;;;;;;;;;3.00;3.00;;;;;-146.25;100.00;57879.81;5057190;28;45524;-73
2022/03/22 01:40:20;;;;;;;;;4.00;3.50;;;;;-146.25;100.00;57879.81;5049393;28;45228;-73
2022/03/22 01:42:46;;;;;;;;;3.00;3.00;;;;;-146.25;100.00;57879.81;5057029;28;45679;-72
2022/03/22 01:45:12;;;;;;;;;2.00;2.00;;;;;-146.25;100.00;57879.81;5060001;28;45474;-73
2022/03/22 01:47:39;;;;;;;;;3.67;3.67;;;;;-146.25;100.00;57879.81;5056837;28;46166;-73
2022/03/22 01:50:08;;;;;;;;;3.25;3.00;;;;;-146.25;100.00;57879.81;5057505;28;45501;-73
2022/03/22 01:52:36;;;;;;;;;3.75;3.00;;;;;-146.25;100.00;57879.81;5057105;28;45367;-73
2022/03/22 01:55:03;;;;;;;;;3.00;2.25;;;;;-146.25;100.00;57879.81;5057126;28;45411;-72
2022/03/22 01:57:30;;;;;;;;;4.50;4.25;;;;;-146.25;100.00;57879.81;5055526;28;46379;-73
2022/03/22 01:59:56;;;;;;;;;3.00;3.00;;;;;-146.25;100.00;57879.81;5054520;28;45507;-73
2022/03/22 02:08:01;;;;;;;;;4.00;3.00;;;;;-146.25;100.00;57879.81;5056700;28;45574;-73
2022/03/22 02:10:26;;;;;;;;;4.00;4.00;;;;;-146.25;100.00;57879.81;5056648;28;45885;-73
2022/03/22 02:12:52;;;;;;;;;4.75;4.00;;;;;-146.25;100.00;57879.81;5055368;28;45465;-73
2022/03/22 02:15:19;;;;;;;;;4.25;4.00;;;;;-146.25;100.00;57879.81;5057311;28;45729;-73
2022/03/22 02:17:45;;;;;;;;;3.25;2.25;;;;;-146.25;100.00;57879.81;5056616;28;45478;-73
2022/03/22 02:20:15;;;;;;;;;4.00;3.75;;;;;-146.25;100.00;57879.81;5055503;28;45621;-73
2022/03/22 02:23:13;;;;;;;;;3.00;2.75;;;;;-146.25;100.00;57879.81;5057118;28;45531;-73
2022/03/22 02:25:39;;;;;;;;;4.00;3.00;;;;;-146.25;100.00;57879.81;5070618;28;46010;-73
2022/03/22 02:28:05;;;;;;;;;2.25;2.25;;;;;-146.25;100.00;57879.81;5055732;28;46240;-73
2022/03/22 02:30:31;;;;;;;;;4.25;4.00;;;;;-146.25;100.00;57879.81;5052575;28;45543;-72
2022/03/22 02:33:00;;;;;;;;;3.50;3.50;;;;;-146.25;100.00;57879.81;5056595;28;45386;-73
2022/03/22 02:35:26;;;;;;;;;4.25;4.25;;;;;-146.25;100.00;57879.81;5046871;28;45594;-73
2022/03/22 02:37:52;;;;;;;;;3.00;3.00;;;;;-146.25;100.00;57879.81;5056173;28;46342;-73
2022/03/22 02:40:19;;;;;;;;;5.75;5.75;;;;;-146.25;100.00;57879.81;5056697;28;45429;-73
2022/03/22 02:42:49;;;;;;;;;4.00;4.00;;;;;-146.25;100.00;57879.81;5056190;28;45527;-73
2022/03/22 02:45:15;;;;;;;;;4.25;4.00;;;;;-146.25;100.00;57879.81;5056148;28;45445;-73
2022/03/22 02:47:42;;;;;;;;;4.75;4.00;;;;;-146.25;100.00;57879.81;5045886;28;45553;-73
2022/03/22 02:50:09;;;;;;;;;4.75;3.00;;;;;-146.25;100.00;57879.81;5052688;28;45361;-73
2022/03/22 02:52:35;;;;;;;;;4.00;3.75;;;;;-146.25;100.00;57879.81;5056085;28;45557;-73
2022/03/22 02:55:03;;;;;;;;;3.50;3.50;;;;;-146.25;100.00;57879.81;5056331;28;45481;-72
2022/03/22 02:57:28;;;;;;;;;5.50;5.00;;;;;-146.25;100.00;57879.81;5054489;28;47956;-74
2022/03/22 02:59:54;;;;;;;;;4.75;4.75;;;;;-146.25;100.00;57879.81;5056137;28;45486;-73
2022/03/22 03:02:19;;;;;;;;;4.25;4.00;;;;;-146.25;100.00;57879.81;5056374;28;45532;-73
2022/03/22 03:04:45;;;;;;;;;3.75;3.75;;;;;-146.25;100.00;57879.81;5056359;28;45423;-73
2022/03/22 03:07:10;;;;;;;;;4.00;3.00;;;;;-146.25;100.00;57879.81;5055847;28;47387;-73
2022/03/22 03:09:36;;;;;;;;;4.00;4.00;;;;;-146.25;100.00;57879.81;5055548;28;45560;-73
2022/03/22 03:12:02;;;;;;;;;3.25;2.75;;;;;-146.25;100.00;57879.81;5056596;28;45450;-73
2022/03/22 03:14:39;;;;;;;;;3.25;3.25;;;;;-146.25;100.00;57879.81;5068467;28;45549;-73
2022/03/22 03:17:06;;;;;;;;;3.50;3.50;;;;;-146.25;100.00;57879.81;5039869;28;45516;-73
2022/03/22 03:19:32;;;;;;;;;5.25;4.50;;;;;-146.25;100.00;57879.81;5055572;28;45542;-73
2022/03/22 03:21:58;;;;;;;;;3.00;3.00;;;;;-146.25;100.00;57879.81;5055834;28;45531;-73
2022/03/22 03:24:24;;;;;;;;;3.25;3.25;;;;;-146.25;100.00;57879.81;5058565;28;45254;-72
2022/03/22 03:26:49;;;;;;;;;4.00;3.00;;;;;-146.25;100.00;57879.81;5059039;28;45631;-73
2022/03/22 03:29:15;;;;;;;;;4.75;4.25;;;;;-146.25;100.00;57879.81;5059494;28;45538;-72
2022/03/22 03:31:41;;;;;;;;;4.00;4.00;;;;;-146.25;100.00;57879.81;5059521;28;45512;-74
2022/03/22 03:34:07;;;;;;;;;2.25;2.00;;;;;-146.25;100.00;57879.81;5059541;28;45592;-73
2022/03/22 03:36:33;;;;;;;;;3.75;3.75;;;;;-146.25;100.00;57879.81;5059129;28;46372;-73
2022/03/22 03:38:59;;;;;;;;;4.00;4.00;;;;;-146.25;100.00;57879.81;5051556;28;45351;-73
2022/03/22 03:47:07;;;;;;;;;3.25;3.00;;;;;-146.25;100.00;57879.81;5058737;28;45893;-73
2022/03/22 03:49:42;;;;;;;;;2.50;2.50;;;;;-146.25;100.00;57879.81;5058918;28;45758;-73
2022/03/22 03:52:15;;;;;;;;;3.75;3.75;;;;;-146.25;100.00;57879.81;5058596;28;45378;-73
2022/03/22 03:54:42;;;;;;;;;5.00;5.00;;;;;-146.25;100.00;57879.81;5059269;28;45553;-72
2022/03/22 03:57:08;;;;;;;;;5.00;4.00;;;;;-146.25;100.00;57879.81;5051416;28;45818;-73
2022/03/22 03:59:35;;;;;;;;;5.00;4.50;;;;;-146.25;100.00;57879.81;5057468;28;45460;-73
2022/03/22 04:02:02;;;;;;;;;2.50;2.50;;;;;-146.25;100.00;57879.81;5058853;28;45537;-72
2022/03/22 04:04:28;;;;;;;;;3.00;3.00;;;;;-146.25;100.00;57879.81;5058321;28;45533;-73
2022/03/22 04:06:53;;;;;;;;;3.50;3.50;;;;;-146.25;100.00;57879.81;5058617;28;45559;-73
2022/03/22 04:09:20;;;;;;;;;4.75;4.00;;;;;-146.25;100.00;57879.81;5074266;28;45562;-73
2022/03/22 04:11:45;;;;;;;;;2.75;2.75;;;;;-146.25;100.00;57879.81;5059080;28;45454;-73
2022/03/22 04:14:12;;;;;;;;;3.50;3.00;;;;;-146.25;100.00;57879.81;5059449;28;45519;-73
2022/03/22 04:16:38;;;;;;;;;3.50;2.75;;;;;-146.25;100.00;57879.81;5057157;28;45438;-73
2022/03/22 04:19:08;;;;;;;;;4.00;4.00;;;;;-146.25;100.00;57879.81;5058611;28;45412;-73
2022/03/22 04:21:38;;;;;;;;;4.00;4.00;;;;;-146.25;100.00;57879.81;5058425;28;47204;-73
2022/03/22 04:24:07;;;;;;;;;3.00;3.00;;;;;-146.25;100.00;57879.81;5057013;28;45357;-73
2022/03/22 04:26:34;;;;;;;;;8.00;5.00;;;;;-146.25;100.00;57879.81;5058923;28;45995;-73
2022/03/22 04:34:28;;;;;;;;;6.50;4.75;;;;;-146.25;100.00;57879.81;5059076;28;45488;-73
2022/03/22 04:36:57;;;;;;;;;3.25;3.25;;;;;-146.25;100.00;57879.81;5057525;28;45956;-73
2022/03/22 04:39:28;;;;;;;;;4.25;4.25;;;;;-146.25;100.00;57879.81;5057470;28;45250;-73
2022/03/22 04:41:56;;;;;;;;;5.75;4.25;;;;;-146.25;100.00;57879.81;5074666;28;45355;-73
2022/03/22 04:44:22;;;;;;;;;5.25;4.75;;;;;-146.25;100.00;57879.81;5057350;28;45446;-73
2022/03/22 04:46:48;;;;;;;;;7.25;5.00;;;;;-146.25;100.00;57879.81;5074421;28;45414;-73
2022/03/22 04:49:14;;;;;;;;;4.50;4.25;;;;;-146.25;100.00;57879.81;5058690;28;45485;-73
2022/03/22 04:57:08;;;;;;;;;3.00;3.00;;;;;-146.25;100.00;57879.81;5057539;28;45859;-74
2022/03/22 04:59:34;;;;;;;;;4.00;4.00;;;;;-146.25;100.00;57879.81;5058403;28;45531;-73
2022/03/22 05:02:00;;;;;;;;;4.25;4.25;;;;;-146.25;100.00;57879.81;5058452;28;45445;-73
2022/03/22 05:04:25;;;;;;;;;5.00;5.00;;;;;-146.25;100.00;57879.81;5058830;28;45300;-73
2022/03/22 05:06:52;;;;;;;;;4.00;3.25;;;;;-146.25;100.00;57879.81;5058643;28;45399;-73
2022/03/22 05:09:18;;;;;;;;;5.50;5.00;;;;;-146.25;100.00;57879.81;5058414;28;45500;-73
2022/03/22 05:11:43;;;;;;;;;5.75;5.50;;;;;-146.25;100.00;57879.81;5057442;28;45497;-73
2022/03/22 05:14:09;;;;;;;;;5.00;5.00;;;;;-146.25;100.00;57879.81;5057559;28;45453;-73
2022/03/22 05:16:35;;;;;;;;;5.00;5.00;;;;;-146.25;100.00;57879.81;5056890;28;45676;-73
2022/03/22 05:19:02;;;;;;;;;6.50;6.00;;;;;-146.25;100.00;57879.81;5057106;28;45465;-73
2022/03/22 05:21:28;;;;;;;;;5.75;5.00;;;;;-146.25;100.00;57879.81;5050518;28;45544;-73
2022/03/22 05:23:54;;;;;;;;;3.75;3.75;;;;;-146.25;100.00;57879.81;5039114;28;45379;-73
2022/03/22 05:26:20;;;;;;;;;4.50;4.50;;;;;-146.25;100.00;57879.81;5060080;28;48137;-73
2022/03/22 05:28:45;;;;;;;;;7.25;5.75;;;;;-146.25;100.00;57879.81;5038246;28;45366;-73
2022/03/22 05:31:14;;;;;;;;;5.25;5.25;;;;;-146.25;100.00;57879.81;5058179;28;45402;-73
2022/03/22 05:33:40;;;;;;;;;5.00;5.00;;;;;-146.25;100.00;57879.81;5058407;28;45463;-73
2022/03/22 05:36:07;;;;;;;;;5.00;4.75;;;;;-146.25;100.00;57879.81;5056328;28;45715;-73
2022/03/22 05:38:33;;;;;;;;;6.00;6.00;;;;;-146.25;100.00;57879.81;5057035;28;45552;-74
2022/03/22 05:41:02;;;;;;;;;5.50;5.00;;;;;-146.25;100.00;57879.81;5057890;28;46064;-73
2022/03/22 05:43:28;;;;;;;;;6.00;5.00;;;;;-146.25;100.00;57879.81;5057740;28;45433;-73
2022/03/22 05:45:53;;;;;;;;;6.25;6.00;;;;;-146.25;100.00;57879.81;5056620;28;45394;-73
2022/03/22 05:48:20;;;;;;;;;8.25;7.75;;;;;-146.25;100.00;57879.81;5055441;28;45575;-73
2022/03/22 05:50:46;;;;;;;;;6.50;6.50;;;;;-146.25;100.00;57879.81;5057210;28;45395;-73
2022/03/22 05:53:13;;;;;;;;;6.75;6.75;;;;;-146.25;100.00;57879.81;5057241;28;45468;-73
2022/03/22 05:55:39;;;;;;;;;6.00;6.00;;;;;-146.25;100.00;57879.81;5056376;28;45470;-72
2022/03/22 05:58:06;;;;;;;;;7.00;5.00;;;;;-146.25;100.00;57879.81;5057055;28;45488;-73
2022/03/22 06:00:32;;;;;;;;;7.00;5.00;;;;;-146.25;100.00;57879.81;5056386;28;45435;-73
2022/03/22 06:02:58;;;;;;;;;7.00;6.00;;;;;-146.25;100.00;57879.81;5056810;28;45599;-73
2022/03/22 06:05:23;;;;;;;;;6.00;6.00;;;;;-146.25;100.00;57879.81;5056584;28;45503;-73
2022/03/22 06:07:49;;;;;;;;;7.00;6.25;;;;;-146.25;100.00;57879.81;5056178;28;45485;-73
2022/03/22 06:10:14;;;;;;;;;6.00;5.75;;;;;-146.25;100.00;57879.81;5056227;28;45416;-74
2022/03/22 06:12:44;;;;;;;;;4.25;4.25;;;;;-146.25;100.00;57879.81;5057023;28;45457;-73
2022/03/22 06:15:30;;;;;;;;;5.50;5.00;;;;;-146.25;100.00;57879.81;5056621;28;46461;-73
2022/03/22 06:18:01;;;;;;;;;7.75;6.75;;;;;-146.25;100.00;57879.81;5056101;28;45469;-73
2022/03/22 06:20:32;;;;;;;;;6.50;6.50;;;;;-146.25;100.00;57879.81;5071529;28;45526;-73
2022/03/22 06:22:59;;;;;;;;;7.00;7.00;;;;;-146.25;100.00;57879.81;5056382;28;45485;-72
2022/03/22 06:25:24;;;;;;;;;5.25;5.00;;;;;-146.25;100.00;57879.81;5056629;28;45461;-73
2022/03/22 06:27:53;;;;;;;;;8.00;6.75;;;;;-146.25;100.00;57879.81;5056176;28;45248;-73
2022/03/22 06:30:19;;;;;;;;;5.25;5.25;;;;;-146.25;100.00;57879.81;5055722;28;45332;-73
2022/03/22 06:32:51;;;;;;;;;6.50;6.00;;;;;-146.25;100.00;57879.81;5056567;28;45293;-72
2022/03/22 06:35:22;;;;;;;;;7.50;6.50;;;;;-146.25;100.00;57879.81;5056458;28;46298;-73
2022/03/22 06:37:49;;;;;;;;;6.00;5.50;;;;;-146.25;100.00;57879.81;5055932;28;45624;-72
2022/03/22 06:40:16;;;;;;;;;6.00;6.00;;;;;-146.25;100.00;57879.81;5056058;28;45354;-73
2022/03/22 06:42:44;;;;;;;;;6.00;5.50;;;;;-146.25;100.00;57879.81;5056277;28;45465;-72
2022/03/22 06:45:10;;;;;;;;;7.00;6.25;;;;;-146.25;100.00;57879.81;5055829;28;46267;-72
2022/03/22 06:47:37;;;;;;;;;6.75;6.75;;;;;-146.25;100.00;57879.81;5055118;28;45784;-72
2022/03/22 06:50:03;;;;;;;;;7.25;6.75;;;;;-146.25;100.00;57879.81;5056517;28;45471;-73
2022/03/22 06:52:29;;;;;;;;;5.25;5.25;;;;;-146.25;100.00;57879.81;5056363;28;45477;-72
2022/03/22 06:54:54;;;;;;;;;8.00;8.00;;;;;-146.25;100.00;57879.81;5088725;27;45798;-72
2022/03/22 06:57:20;;;;;;;;;10.75;9.00;;;;;-146.25;100.00;57879.81;5055700;28;45477;-73
2022/03/22 06:59:46;;;;;;;;;8.00;8.00;;;;;-146.25;100.00;57879.81;5060514;28;45512;-72
2022/03/22 07:02:11;;;;;;;;;8.00;7.00;;;;;-146.25;100.00;57879.81;5063320;28;45628;-73
2022/03/22 07:04:37;;;;;;;;;9.00;7.25;;;;;-146.25;100.00;57879.81;5062800;28;46552;-72
2022/03/22 07:07:03;;;;;;;;;7.25;7.00;;;;;-146.25;100.00;57879.81;5062313;28;45585;-72
2022/03/22 07:09:29;;;;;;;;;5.00;5.00;;;;;-146.25;100.00;57879.81;5062653;28;45433;-73
2022/03/22 07:11:56;;;;;;;;;6.25;6.00;;;;;-146.25;100.00;57879.81;5074951;28;45574;-73
2022/03/22 07:14:27;;;;;;;;;6.00;5.50;;;;;-146.25;100.00;57879.81;5058877;28;45743;-72
2022/03/22 07:16:53;;;;;;;;;5.00;5.00;;;;;-146.25;100.00;57879.81;5061359;28;45687;-73
2022/03/22 07:19:21;;;;;;;;;14.25;14.25;;;;;-146.25;100.00;57879.81;5063096;28;45427;-73
2022/03/22 07:21:47;;;;;;;;;5.50;5.00;;;;;-146.25;100.00;57879.81;5062619;28;45488;-73
2022/03/22 07:24:14;;;;;;;;;8.00;8.00;;;;;-146.25;100.00;57879.81;5060426;28;45766;-72
2022/03/22 07:26:41;;;;;;;;;7.50;7.00;;;;;-146.25;100.00;57879.81;5061164;28;45361;-73
2022/03/22 07:29:07;;;;;;;;;6.00;5.33;;;;;-146.25;100.00;57879.81;5077962;28;45509;-72
2022/03/22 07:31:40;;;;;;;;;7.00;7.00;;;;;-146.25;100.00;57879.81;5062136;28;45673;-73
2022/03/22 07:34:11;;;;;;;;;8.00;8.00;;;;;-146.25;100.00;57879.81;5061662;28;46106;-72
2022/03/22 07:36:39;;;;;;;;;11.25;9.25;;;;;-146.25;100.00;57879.81;5061257;28;45366;-72
2022/03/22 07:39:06;;;;;;;;;8.00;8.00;;;;;-146.25;100.00;57879.81;5061872;28;45452;-72
2022/03/22 07:41:31;;;;;;;;;14.25;12.50;;;;;-146.25;100.00;57879.81;5061934;28;45544;-73
2022/03/22 07:43:57;;;;;;;;;13.75;12.25;;;;;-146.25;100.00;57879.81;5061687;28;45474;-73
2022/03/22 07:46:23;;;;;;;;;8.25;8.00;;;;;-146.25;100.00;57879.81;5061678;28;46196;-73
2022/03/22 07:48:51;;;;;;;;;12.00;11.00;;;;;-146.25;100.00;57879.81;5062193;28;45476;-73
2022/03/22 07:54:02;;;;;;;;;10.25;10.25;;;;;-146.25;100.00;57879.81;5061208;28;45808;-73
2022/03/22 07:56:30;;;;;;;;;7.25;7.00;;;;;-146.25;100.00;57879.81;5062236;28;45607;-73
2022/03/22 07:58:56;;;;;;;;;9.50;8.75;;;;;-146.25;100.00;57879.81;5061984;28;45557;-73
2022/03/22 08:01:22;;;;;;;;;10.50;10.00;;;;;-146.25;100.00;57879.81;5061893;28;45427;-73
2022/03/22 08:03:47;;;;;;;;;9.75;9.00;;;;;-146.25;100.00;57879.81;5060848;28;46131;-73
2022/03/22 08:06:13;;;;;;;;;9.75;9.00;;;;;-146.25;100.00;57879.81;5054092;28;45673;-72
2022/03/22 08:08:43;;;;;;;;;9.00;8.33;;;;;-146.25;100.00;57879.81;5051176;28;45643;-72
2022/03/22 08:11:09;;;;;;;;;15.25;15.25;;;;;-146.25;100.00;57879.81;5043416;28;45935;-73
2022/03/22 08:13:36;;;;;;;;;10.33;8.00;;;;;-146.25;100.00;57879.81;5072175;28;45550;-73
2022/03/22 08:16:03;;;;;;;;;11.75;10.50;;;;;-146.25;100.00;57879.81;5058302;28;45365;-72
2022/03/22 08:18:29;;;;;;;;;7.00;7.00;;;;;-146.25;100.00;57879.81;5058536;28;45396;-73
2022/03/22 08:20:55;;;;;;;;;10.00;9.00;;;;;-146.25;100.00;57879.81;5056672;28;45530;-70
2022/03/22 08:23:22;;;;;;;;;10.00;8.00;;;;;-146.25;100.00;57879.81;5055689;28;46478;-71
2022/03/22 08:25:49;;;;;;;;;9.00;8.00;;;;;-146.25;100.00;57879.81;5057930;28;45406;-71
2022/03/22 08:28:15;;;;;;;;;9.00;9.00;;;;;-146.25;100.00;57879.81;5057883;28;45499;-74
2022/03/22 08:30:42;;;;;;;;;7.33;6.33;;;;;-146.25;100.00;57879.81;5052814;28;45433;-73
2022/03/22 08:33:09;;;;;;;;;9.25;8.00;;;;;-146.25;100.00;57879.81;5057141;28;45656;-73
2022/03/22 08:35:41;;;;;;;;;8.33;8.00;;;;;-146.25;100.00;57879.81;5057513;28;45280;-72
2022/03/22 08:38:08;;;;;;;;;8.50;8.00;;;;;-146.25;100.00;57879.81;5056153;28;45367;-72
2022/03/22 08:40:34;;;;;;;;;8.00;8.00;;;;;-146.25;100.00;57879.81;5057041;28;45449;-72
2022/03/22 08:43:02;;;;;;;;;8.00;7.00;;;;;-146.25;100.00;57879.81;5057547;28;45391;-74
2022/03/22 08:45:27;;;;;;;;;7.67;7.00;;;;;-146.25;100.00;57879.81;5057741;28;45527;-73
2022/03/22 08:47:54;;;;;;;;;7.33;7.00;;;;;-146.25;100.00;57879.81;5057090;28;45437;-72
2022/03/22 08:50:22;;;;;;;;;6.67;6.67;;;;;-146.25;100.00;57879.81;5057332;28;45492;-73
2022/03/22 08:52:53;;;;;;;;;8.33;7.67;;;;;-146.25;100.00;57879.81;5057516;28;46118;-74
2022/03/22 08:55:20;;;;;;;;;7.67;7.00;;;;;-146.25;100.00;57879.81;5056903;28;45420;-73
2022/03/22 08:57:48;;;;;;;;;7.00;7.00;;;;;-146.25;100.00;57879.81;5057651;28;45649;-74
2022/03/22 09:00:15;;;;;;;;;9.00;9.00;;;;;-146.25;100.00;57879.81;5057301;28;45591;-73
2022/03/22 09:02:43;;;;;;;;;8.33;8.00;;;;;-146.25;100.00;57879.81;5072273;28;46752;-76
2022/03/22 09:07:58;;;;;;;;;8.00;7.00;;;;;-146.25;100.00;57879.81;5056456;28;45492;-72
2022/03/22 09:10:28;;;;;;;;;6.67;6.67;;;;;-146.25;100.00;57879.81;5072625;28;45307;-75
2022/03/22 09:12:55;;;;;;;;;9.00;9.00;;;;;-146.25;100.00;57879.81;5057164;28;45467;-74
2022/03/22 09:15:25;;;;;;;;;7.67;7.00;;;;;-146.25;100.00;57879.81;5056086;28;45588;-73
2022/03/22 09:17:52;;;;;;;;;7.25;7.25;;;;;-146.25;100.00;57879.81;5057087;28;45449;-72
2022/03/22 09:20:18;;;;;;;;;10.50;9.50;;;;;-146.25;100.00;57879.81;5056742;28;45466;-71
2022/03/22 09:22:47;;;;;;;;;6.67;6.33;;;;;-146.25;100.00;57879.81;5056036;28;45947;-74
2022/03/22 09:25:13;;;;;;;;;6.33;6.00;;;;;-146.25;100.00;57879.81;5056364;28;45449;-72
2022/03/22 09:27:43;;;;;;;;;11.67;11.67;;;;;-146.25;100.00;57879.81;5056370;28;45673;-71
2022/03/22 09:30:11;;;;;;;;;10.67;10.67;;;;;-146.25;100.00;57879.81;5056692;28;45548;-75
2022/03/22 09:32:38;;;;;;;;;10.33;8.67;;;;;-146.25;100.00;57879.81;5056499;28;46285;-72
2022/03/22 09:35:06;;;;;;;;;7.00;4.67;;;;;-146.25;100.00;57879.81;5056401;28;45815;-71
2022/03/22 09:37:35;;;;;;;;;8.33;8.33;;;;;-146.25;100.00;57879.81;5057115;28;45454;-74
2022/03/22 09:40:01;;;;;;;;;12.75;10.75;;;;;-146.25;100.00;57879.81;5056289;28;45504;-71
2022/03/22 09:42:27;;;;;;;;;9.33;8.67;;;;;-146.25;100.00;57879.81;5056165;28;45484;-72
2022/03/22 09:44:53;;;;;;;;;12.00;8.67;;;;;-146.25;100.00;57879.81;5056256;28;45803;-72
2022/03/22 09:47:19;;;;;;;;;7.00;7.00;;;;;-146.25;100.00;57879.81;5056094;28;45964;-74
2022/03/22 09:49:45;;;;;;;;;10.00;10.00;;;;;-146.25;100.00;57879.81;5063774;28;45388;-75
2022/03/22 09:52:12;;;;;;;;;11.00;11.00;;;;;-146.25;100.00;57879.81;5056869;28;45769;-71
2022/03/22 09:54:39;;;;;;;;;9.67;8.67;;;;;-146.25;100.00;57879.81;5055308;28;45749;-71
2022/03/22 09:57:05;;;;;;;;;8.33;7.33;;;;;-146.25;100.00;57879.81;5051838;28;45497;-73
2022/03/22 09:59:33;;;;;;;;;10.33;10.00;;;;;-146.25;100.00;57879.81;5055510;28;45710;-73
2022/03/22 10:02:04;;;;;;;;;7.00;7.00;;;;;-146.25;100.00;57879.81;5050712;28;46525;-73
2022/03/22 10:04:41;;;;;;;;;9.33;8.67;;;;;-146.25;100.00;57879.81;5055643;28;45543;-73
2022/03/22 10:07:16;;;;;;;;;12.67;9.33;;;;;-146.25;100.00;57879.81;5070907;28;45784;-74
2022/03/22 10:09:41;;;;;;;;;7.00;7.00;;;;;-146.25;100.00;57879.81;5053110;28;45510;-73
2022/03/22 10:12:10;;;;;;;;;8.00;7.00;;;;;-146.25;100.00;57879.81;5055031;28;46934;-73
2022/03/22 10:14:41;;;;;;;;;7.33;7.00;;;;;-146.25;100.00;57879.81;5055391;28;45623;-72
2022/03/22 10:17:15;;;;;;;;;8.33;7.00;;;;;-146.25;100.00;57879.81;5052217;28;45572;-72
2022/03/22 10:19:41;;;;;;;;;9.00;7.00;;;;;-146.25;100.00;57879.81;5052719;28;45441;-74
2022/03/22 10:22:10;;;;;;;;;6.00;6.00;;;;;-146.25;100.00;57879.81;5054514;28;45507;-74
2022/03/22 10:24:47;;;;;;;;;9.00;9.00;;;;;-146.25;100.00;57879.81;5051332;28;45422;-74
2022/03/22 10:27:20;;;;;;;;;9.00;9.00;;;;;-146.25;100.00;57879.81;5052761;28;45696;-73
2022/03/22 10:29:45;;;;;;;;;7.00;7.00;;;;;-146.25;100.00;57879.81;5055710;28;45442;-72
2022/03/22 10:32:11;;;;;;;;;7.00;7.00;;;;;-146.25;100.00;57879.81;5054861;28;45480;-74
2022/03/22 10:34:37;;;;;;;;;10.67;10.67;;;;;-146.25;100.00;57879.81;5053295;28;45497;-72
2022/03/22 10:37:02;;;;;;;;;15.33;15.33;;;;;-146.25;100.00;57879.81;5056121;28;45465;-73
2022/03/22 10:39:28;;;;;;;;;14.00;13.33;;;;;-146.25;100.00;57879.81;5056780;28;45456;-73
2022/03/22 10:42:04;;;;;;;;;9.67;9.00;;;;;-146.25;100.00;57879.81;5043622;28;47609;-72
2022/03/22 10:44:37;;;;;;;;;9.00;8.00;;;;;-146.25;100.00;57879.81;5052542;28;45603;-74
2022/03/22 10:47:03;;;;;;;;;8.00;8.00;;;;;-146.25;100.00;57879.81;5056953;28;45430;-71
2022/03/22 10:49:29;;;;;;;;;10.67;10.00;;;;;-146.25;100.00;57879.81;5056636;28;45422;-72
2022/03/22 10:51:58;;;;;;;;;12.67;10.33;;;;;-146.25;100.00;57879.81;5054855;28;46078;-74
2022/03/22 10:54:24;;;;;;;;;8.67;8.00;;;;;-146.25;100.00;57879.81;5054722;28;45430;-74
2022/03/22 10:56:53;;;;;;;;;12.67;11.33;;;;;-146.25;100.00;57879.81;5055433;28;45514;-73
2022/03/22 10:59:21;;;;;;;;;9.33;9.00;;;;;-146.25;100.00;57879.81;5055930;28;45473;-73
2022/03/22 11:01:48;;;;;;;;;6.67;6.67;;;;;-146.25;100.00;57879.81;5055511;28;45878;-73
2022/03/22 11:04:15;;;;;;;;;9.67;9.67;;;;;-146.25;100.00;57879.81;5054995;28;45309;-74
2022/03/22 11:06:42;;;;;;;;;8.00;7.33;;;;;-146.25;100.00;57879.81;5054943;28;45487;-71
2022/03/22 11:09:08;;;;;;;;;4.00;4.00;;;;;-146.25;100.00;57879.81;5055452;28;45389;-75
2022/03/22 11:11:35;;;;;;;;;7.33;7.00;;;;;-146.25;100.00;57879.81;5054056;28;45681;-75
2022/03/22 11:14:01;;;;;;;;;9.00;9.00;;;;;-146.25;100.00;57879.81;5053716;28;45679;-72
2022/03/22 11:16:29;;;;;;;;;9.33;8.67;;;;;-146.25;100.00;57879.81;5055001;28;45402;-73
2022/03/22 11:18:59;;;;;;;;;6.00;6.00;;;;;-146.25;100.00;57879.81;5054478;28;45465;-72
2022/03/22 11:21:26;;;;;;;;;8.33;8.00;;;;;-146.25;100.00;57879.81;5054323;28;45515;-74
2022/03/22 11:24:12;;;;;;;;;6.67;6.67;;;;;-146.25;100.00;57879.81;5053987;28;45524;-72
2022/03/22 11:26:42;;;;;;;;;6.67;5.67;;;;;-146.25;100.00;57879.81;5052687;28;46146;-72
2022/03/22 11:29:12;;;;;;;;;9.00;8.00;;;;;-146.25;100.00;57879.81;5054686;28;45637;-73
2022/03/22 11:31:40;;;;;;;;;9.67;8.67;;;;;-146.25;100.00;57879.81;5055870;28;45415;-72
2022/03/22 11:34:10;;;;;;;;;12.00;11.00;;;;;-146.25;100.00;57879.81;5055549;28;45719;-71
2022/03/22 11:36:45;;;;;;;;;11.00;9.00;;;;;-146.25;100.00;57879.81;5055977;28;45833;-71